Check out our new PWSWeather beta!
PWSweather.com
Personal Weather Stations
Station Observations
IDA15
IdafehnDE 26842

IdafehnDE 26842

Lat: 53.135815, Lon: 7.632699

Elevation: 0

Station Type: Netatmo NWS01

Latest ConditionsUpdated 1:12:00 PM GMT+01:01 Thursday, Feb 27, 2020
Currently Today's Max Today's Min Today's Average
Temperature 39.6°F4.2°C 39.6°F4.2°C 33.8°F1.0°C 36.0°F2.2°C
Dew Point 34.5°F1.4°C 34.7°F1.5°C 29.5°F-1.4°C 31.7°F-0.2°C
Winds - N N - - - - -
Wind Gusts -- -- - -
Humidity 86% 89% 86% 88%
Pressure 29.44 in997.0 mb 29.57 in1001.4 mb 29.44 in997.0 mb -
Precipitation - 0.02 in0.5 mm - -
Hour Temp Dew Point Humidity Winds Wind Gusts Pressure Precip Precip Rate Daily Precip Total
01:12 PM 39.6°F4.2°C 34.5°F1.4°C 86% - N N -- 29.44 in997.0 mb 0.00 in0.0 mm 0.00 in0.0 mm 0.02 in0.5 mm
01:02 PM 39.4°F4.1°C 34.3°F1.3°C 86% - N N -- 29.44 in997.0 mb 0.00 in0.0 mm 0.00 in0.0 mm 0.02 in0.5 mm
12:53 PM 39.4°F4.1°C 34.7°F1.5°C 87% - N N -- 29.44 in997.0 mb 0.00 in0.0 mm 0.00 in0.0 mm 0.02 in0.5 mm
12:42 PM 39.2°F4.0°C 34.5°F1.4°C 87% - N N -- 29.44 in997.0 mb 0.00 in0.0 mm 0.00 in0.0 mm 0.02 in0.5 mm
12:32 PM 39.0°F3.9°C 34.3°F1.3°C 87% - N N -- 29.45 in997.3 mb 0.00 in0.0 mm 0.00 in0.0 mm 0.02 in0.5 mm
12:22 PM 39.0°F3.9°C 34.3°F1.3°C 87% - N N -- 29.45 in997.3 mb 0.00 in0.0 mm 0.00 in0.0 mm 0.02 in0.5 mm
12:12 PM 38.8°F3.8°C 34.2°F1.2°C 87% - N N -- 29.45 in997.3 mb 0.00 in0.0 mm 0.00 in0.0 mm 0.02 in0.5 mm
12:02 PM 38.7°F3.7°C 34.3°F1.3°C 88% - N N -- 29.45 in997.3 mb 0.00 in0.0 mm 0.00 in0.0 mm 0.02 in0.5 mm
11:52 AM 38.5°F3.6°C 34.2°F1.2°C 88% - N N -- 29.46 in997.6 mb 0.00 in0.0 mm 0.00 in0.0 mm 0.02 in0.5 mm
11:42 AM 38.3°F3.5°C 34.0°F1.1°C 88% - N N -- 29.46 in997.6 mb 0.00 in0.0 mm 0.00 in0.0 mm 0.02 in0.5 mm
11:33 AM 38.1°F3.4°C 33.8°F1.0°C 88% - N N -- 29.47 in998.0 mb 0.00 in0.0 mm 0.00 in0.0 mm 0.02 in0.5 mm
11:22 AM 37.9°F3.3°C 33.6°F0.9°C 88% - N N -- 29.47 in998.0 mb 0.00 in0.0 mm 0.00 in0.0 mm 0.02 in0.5 mm
11:12 AM 37.8°F3.2°C 33.4°F0.8°C 88% - N N -- 29.47 in998.0 mb 0.00 in0.0 mm 0.00 in0.0 mm 0.02 in0.5 mm
11:02 AM 37.4°F3.0°C 33.1°F0.6°C 88% - N N -- 29.47 in998.0 mb 0.00 in0.0 mm 0.00 in0.0 mm 0.02 in0.5 mm
10:42 AM 36.9°F2.7°C 32.5°F0.3°C 88% - N N -- 29.48 in998.3 mb 0.00 in0.0 mm 0.00 in0.0 mm 0.02 in0.5 mm
10:32 AM 36.7°F2.6°C 32.7°F0.4°C 89% - N N -- 29.49 in998.6 mb 0.00 in0.0 mm 0.00 in0.0 mm 0.02 in0.5 mm
10:22 AM 36.5°F2.5°C 32.5°F0.3°C 89% - N N -- 29.49 in998.6 mb 0.00 in0.0 mm 0.00 in0.0 mm 0.02 in0.5 mm
10:12 AM 36.1°F2.3°C 32.2°F0.1°C 89% - N N -- 29.49 in998.6 mb 0.00 in0.0 mm 0.00 in0.0 mm 0.02 in0.5 mm
10:02 AM 36.0°F2.2°C 32.0°F0.0°C 89% - N N -- 29.50 in999.0 mb 0.00 in0.0 mm 0.00 in0.0 mm 0.02 in0.5 mm
09:52 AM 35.8°F2.1°C 31.8°F-0.1°C 89% - N N -- 29.50 in999.0 mb 0.00 in0.0 mm 0.00 in0.0 mm 0.02 in0.5 mm
09:41 AM 35.4°F1.9°C 31.5°F-0.3°C 89% - N N -- 29.51 in999.3 mb 0.00 in0.0 mm 0.00 in0.0 mm 0.02 in0.5 mm
09:32 AM 35.2°F1.8°C 31.3°F-0.4°C 89% - N N -- 29.51 in999.3 mb 0.00 in0.0 mm 0.00 in0.0 mm 0.02 in0.5 mm
09:22 AM 35.1°F1.7°C 31.1°F-0.5°C 89% - N N -- 29.51 in999.3 mb 0.00 in0.0 mm 0.00 in0.0 mm 0.02 in0.5 mm
09:12 AM 34.9°F1.6°C 30.9°F-0.6°C 89% - N N -- 29.52 in999.7 mb 0.00 in0.0 mm 0.00 in0.0 mm 0.02 in0.5 mm
09:01 AM 34.7°F1.5°C 30.7°F-0.7°C 89% - N N -- 29.51 in999.3 mb 0.00 in0.0 mm 0.00 in0.0 mm 0.02 in0.5 mm
08:52 AM 34.5°F1.4°C 30.6°F-0.8°C 89% - N N -- 29.52 in999.7 mb 0.00 in0.0 mm 0.00 in0.0 mm 0.02 in0.5 mm
08:41 AM 34.5°F1.4°C 30.6°F-0.8°C 89% - N N -- 29.52 in999.7 mb 0.00 in0.0 mm 0.00 in0.0 mm 0.02 in0.5 mm
08:32 AM 34.5°F1.4°C 30.6°F-0.8°C 89% - N N -- 29.52 in999.7 mb 0.00 in0.0 mm 0.00 in0.0 mm 0.02 in0.5 mm
08:21 AM 34.3°F1.3°C 30.4°F-0.9°C 89% - N N -- 29.52 in999.7 mb 0.00 in0.0 mm 0.00 in0.0 mm 0.02 in0.5 mm
08:11 AM 34.3°F1.3°C 30.4°F-0.9°C 89% - N N -- 29.52 in999.7 mb 0.00 in0.0 mm 0.00 in0.0 mm 0.02 in0.5 mm
08:01 AM 34.2°F1.2°C 30.2°F-1.0°C 89% - N N -- 29.52 in999.7 mb 0.00 in0.0 mm 0.00 in0.0 mm 0.02 in0.5 mm
07:51 AM 34.0°F1.1°C 30.0°F-1.1°C 89% - N N -- 29.52 in999.7 mb 0.00 in0.0 mm 0.02 in0.5 mm 0.02 in0.5 mm
07:41 AM 34.0°F1.1°C 30.0°F-1.1°C 89% - N N -- 29.52 in999.7 mb 0.00 in0.0 mm 0.00 in0.0 mm 0.01 in0.3 mm
07:31 AM 33.8°F1.0°C 29.8°F-1.2°C 89% - N N -- 29.52 in999.7 mb 0.00 in0.0 mm 0.00 in0.0 mm 0.01 in0.3 mm
07:21 AM 33.8°F1.0°C 29.8°F-1.2°C 89% - N N -- 29.53 in1000.0 mb 0.00 in0.0 mm 0.00 in0.0 mm 0.01 in0.3 mm
07:11 AM 33.8°F1.0°C 29.5°F-1.4°C 88% - N N -- 29.53 in1000.0 mb 0.00 in0.0 mm 0.00 in0.0 mm 0.01 in0.3 mm
07:01 AM 33.8°F1.0°C 29.5°F-1.4°C 88% - N N -- 29.53 in1000.0 mb 0.00 in0.0 mm 0.00 in0.0 mm 0.01 in0.3 mm
06:51 AM 33.8°F1.0°C 29.5°F-1.4°C 88% - N N -- 29.53 in1000.0 mb 0.00 in0.0 mm 0.00 in0.0 mm 0.01 in0.3 mm
06:40 AM 34.0°F1.1°C 29.7°F-1.3°C 88% - N N -- 29.54 in1000.3 mb 0.00 in0.0 mm 0.00 in0.0 mm 0.01 in0.3 mm
06:31 AM 34.0°F1.1°C 29.7°F-1.3°C 88% - N N -- 29.54 in1000.3 mb 0.00 in0.0 mm 0.00 in0.0 mm 0.01 in0.3 mm
06:21 AM 34.2°F1.2°C 29.8°F-1.2°C 88% - N N -- 29.55 in1000.7 mb 0.00 in0.0 mm 0.00 in0.0 mm 0.01 in0.3 mm
06:10 AM 34.2°F1.2°C 29.8°F-1.2°C 88% - N N -- 29.54 in1000.3 mb 0.00 in0.0 mm 0.00 in0.0 mm 0.01 in0.3 mm
06:00 AM 34.3°F1.3°C 30.0°F-1.1°C 88% - N N -- 29.55 in1000.7 mb 0.00 in0.0 mm 0.00 in0.0 mm 0.01 in0.3 mm
05:51 AM 34.5°F1.4°C 30.2°F-1.0°C 88% - N N -- 29.55 in1000.7 mb 0.00 in0.0 mm 0.00 in0.0 mm 0.01 in0.3 mm
05:41 AM 34.7°F1.5°C 30.4°F-0.9°C 88% - N N -- 29.55 in1000.7 mb 0.00 in0.0 mm 0.00 in0.0 mm 0.01 in0.3 mm
05:30 AM 34.9°F1.6°C 30.6°F-0.8°C 88% - N N -- 29.55 in1000.7 mb 0.00 in0.0 mm 0.00 in0.0 mm 0.01 in0.3 mm
05:20 AM 35.1°F1.7°C 30.7°F-0.7°C 88% - N N -- 29.55 in1000.7 mb 0.00 in0.0 mm 0.00 in0.0 mm 0.01 in0.3 mm
05:11 AM 35.4°F1.9°C 31.1°F-0.5°C 88% - N N -- 29.55 in1000.7 mb 0.00 in0.0 mm 0.00 in0.0 mm 0.01 in0.3 mm
05:00 AM 35.6°F2.0°C 31.3°F-0.4°C 88% - N N -- 29.55 in1000.7 mb 0.00 in0.0 mm 0.00 in0.0 mm 0.01 in0.3 mm
04:50 AM 35.6°F2.0°C 31.3°F-0.4°C 88% - N N -- 29.55 in1000.7 mb 0.00 in0.0 mm 0.00 in0.0 mm 0.01 in0.3 mm
04:40 AM 35.6°F2.0°C 31.3°F-0.4°C 88% - N N -- 29.56 in1001.0 mb 0.00 in0.0 mm 0.00 in0.0 mm 0.01 in0.3 mm
04:31 AM 35.6°F2.0°C 31.3°F-0.4°C 88% - N N -- 29.56 in1001.0 mb 0.00 in0.0 mm 0.00 in0.0 mm 0.01 in0.3 mm
04:20 AM 35.6°F2.0°C 31.3°F-0.4°C 88% - N N -- 29.56 in1001.0 mb 0.00 in0.0 mm 0.00 in0.0 mm 0.01 in0.3 mm
04:10 AM 35.8°F2.1°C 31.5°F-0.3°C 88% - N N -- 29.56 in1001.0 mb 0.01 in0.3 mm 0.00 in0.0 mm 0.01 in0.3 mm
04:00 AM 36.0°F2.2°C 31.6°F-0.2°C 88% - N N -- 29.56 in1001.0 mb 0.01 in0.3 mm 0.00 in0.0 mm 0.01 in0.3 mm
03:50 AM 36.0°F2.2°C 31.6°F-0.2°C 88% - N N -- 29.56 in1001.0 mb 0.01 in0.3 mm 0.00 in0.0 mm 0.01 in0.3 mm
03:40 AM 36.1°F2.3°C 31.8°F-0.1°C 88% - N N -- 29.55 in1000.7 mb 0.01 in0.3 mm 0.00 in0.0 mm 0.01 in0.3 mm
03:30 AM 36.1°F2.3°C 31.8°F-0.1°C 88% - N N -- 29.56 in1001.0 mb 0.01 in0.3 mm 0.00 in0.0 mm 0.01 in0.3 mm
03:20 AM 36.1°F2.3°C 31.8°F-0.1°C 88% - N N -- 29.56 in1001.0 mb 0.01 in0.3 mm 0.08 in2.0 mm 0.01 in0.3 mm
03:11 AM 36.0°F2.2°C 31.6°F-0.2°C 88% - N N -- 29.57 in1001.4 mb 0.00 in0.0 mm 0.00 in0.0 mm 0.00 in0.0 mm
03:01 AM 36.0°F2.2°C 31.6°F-0.2°C 88% - N N -- 29.57 in1001.4 mb 0.00 in0.0 mm 0.00 in0.0 mm 0.00 in0.0 mm
02:51 AM 35.8°F2.1°C 31.5°F-0.3°C 88% - N N -- 29.57 in1001.4 mb 0.00 in0.0 mm 0.00 in0.0 mm 0.00 in0.0 mm
02:41 AM 35.8°F2.1°C 31.5°F-0.3°C 88% - N N -- 29.57 in1001.4 mb 0.00 in0.0 mm 0.00 in0.0 mm 0.00 in0.0 mm
02:31 AM 36.0°F2.2°C 31.6°F-0.2°C 88% - N N -- 29.57 in1001.4 mb 0.00 in0.0 mm 0.00 in0.0 mm 0.00 in0.0 mm
02:21 AM 36.0°F2.2°C 31.3°F-0.4°C 87% - N N -- 29.56 in1001.0 mb 0.00 in0.0 mm 0.00 in0.0 mm 0.00 in0.0 mm
02:11 AM 36.0°F2.2°C 31.3°F-0.4°C 87% - N N -- 29.56 in1001.0 mb 0.00 in0.0 mm 0.00 in0.0 mm 0.00 in0.0 mm
02:00 AM 36.1°F2.3°C 31.5°F-0.3°C 87% - N N -- 29.56 in1001.0 mb 0.00 in0.0 mm 0.00 in0.0 mm 0.00 in0.0 mm
01:50 AM 36.5°F2.5°C 31.8°F-0.1°C 87% - N N -- 29.56 in1001.0 mb 0.00 in0.0 mm 0.00 in0.0 mm 0.00 in0.0 mm
01:41 AM 36.7°F2.6°C 32.0°F0.0°C 87% - N N -- 29.57 in1001.4 mb 0.00 in0.0 mm 0.00 in0.0 mm 0.00 in0.0 mm
01:30 AM 36.9°F2.7°C 32.2°F0.1°C 87% - N N -- 29.56 in1001.0 mb 0.00 in0.0 mm 0.00 in0.0 mm 0.00 in0.0 mm
01:20 AM 37.2°F2.9°C 32.5°F0.3°C 87% - N N -- 29.56 in1001.0 mb 0.00 in0.0 mm 0.00 in0.0 mm 0.00 in0.0 mm
01:10 AM 37.4°F3.0°C 32.7°F0.4°C 87% - N N -- 29.56 in1001.0 mb 0.00 in0.0 mm 0.00 in0.0 mm 0.00 in0.0 mm
01:01 AM 37.2°F2.9°C 32.5°F0.3°C 87% - N N -- 29.57 in1001.4 mb 0.00 in0.0 mm 0.00 in0.0 mm 0.00 in0.0 mm
12:50 AM 37.2°F2.9°C 32.5°F0.3°C 87% - N N -- 29.56 in1001.0 mb 0.00 in0.0 mm 0.00 in0.0 mm 0.00 in0.0 mm
12:40 AM 37.2°F2.9°C 32.5°F0.3°C 87% - N N -- 29.56 in1001.0 mb 0.00 in0.0 mm 0.00 in0.0 mm 0.00 in0.0 mm
12:30 AM 37.2°F2.9°C 32.5°F0.3°C 87% - N N -- 29.56 in1001.0 mb 0.00 in0.0 mm 0.00 in0.0 mm 0.00 in0.0 mm
12:00 AM 37.2°F2.9°C 32.5°F0.3°C 87% - N N -- 29.57 in1001.4 mb 0.00 in0.0 mm 0.00 in0.0 mm 0.00 in0.0 mm